Main page
METAR-TAF:

METAR-TAF

Airports :

Benbecula Airport

Benbecula, Scotland

latitude: 57-28N, longitude: 007-22W, elevation: 6 m

Current weather observation

The report was made 21 minutes ago, at 13:20 UTC
Wind 15 kt from the Southwest
Temperature 15°C
Humidity 72%
Pressure 1023 hPa
Visibility 10 km or more
no clouds below 1500 m and no cumulonimbus

METAR: EGPL 241320Z 23015KT CAVOK 15/10 Q1023

Time: 14:41 (13:41 UTC)

Forecast

The report was made 2 hours and 38 minutes ago, at 11:03 UTC
Forecast valid from 24 at 12 UTC to 24 at 17 UTC
Wind 14 kt from the South/Southwest
Visibility 10 km or more
Few clouds at a height of 2000 ft
Becoming
from 24 at 16 UTC to 24 at 17 UTC
Wind 9 kt from the West
Temporary
from 24 at 16 UTC to 24 at 17 UTC
Visibility: 6000 m

TAF: EGPL 241103Z 2412/2417 20014KT 9999 FEW020 BECMG 2416/2417 28009KT TEMPO 2416/2417 6000

Weather observations and forecasts of more than 4000 airports (METAR and TAF reports).

The available stations are represented by yellow and red dots on the map.

Hover mouse over dot to see the name of the station.

Then click to see weather observations and forecasts.

To change the map : click on the green buttons with a black cross to zoom in, on the green button with a dash to zoom out, or on the green arrows for adjacent maps.


METAR-TAF: